createdAt,value
2018-02-22T00:02:21.683Z,45.60
2018-02-22T00:04:49.914Z,45.30
2018-02-22T00:07:17.377Z,45.60
2018-02-22T00:09:44.845Z,45.70
2018-02-22T00:12:12.294Z,45.60
2018-02-22T00:14:39.777Z,45.70
2018-02-22T00:17:07.236Z,45.80
2018-02-22T00:19:35.487Z,45.80
2018-02-22T00:22:02.942Z,45.80
2018-02-22T00:24:30.410Z,45.70
2018-02-22T00:26:57.865Z,45.80
2018-02-22T00:29:25.340Z,45.90
2018-02-22T00:31:53.398Z,45.90
2018-02-22T00:34:20.857Z,46.00
2018-02-22T00:36:48.314Z,46.00
2018-02-22T00:39:15.778Z,46.50
2018-02-22T00:41:44.007Z,46.10
2018-02-22T00:44:11.475Z,46.10
2018-02-22T00:46:38.929Z,46.10
2018-02-22T00:49:06.386Z,46.10
2018-02-22T00:51:33.851Z,46.10
2018-02-22T00:54:01.310Z,46.10
2018-02-22T00:56:28.781Z,46.10
2018-02-22T00:58:56.251Z,46.10
2018-02-22T01:01:25.515Z,46.30
2018-02-22T01:03:52.969Z,46.30
2018-02-22T01:06:20.440Z,46.30
2018-02-22T01:08:47.905Z,46.30
2018-02-22T01:11:15.379Z,46.30
2018-02-22T01:13:43.597Z,46.30
2018-02-22T01:16:11.085Z,46.30
2018-02-22T01:18:38.538Z,46.30
2018-02-22T01:21:07.506Z,46.40
2018-02-22T01:23:34.974Z,46.30
2018-02-22T01:26:02.443Z,46.40
2018-02-22T01:28:29.897Z,46.40
2018-02-22T01:30:57.374Z,46.40
2018-02-22T01:33:25.600Z,46.50
2018-02-22T01:35:53.062Z,46.50
2018-02-22T01:38:20.514Z,46.40
2018-02-22T01:40:47.973Z,46.50
2018-02-22T01:43:15.434Z,46.50
2018-02-22T01:45:42.936Z,46.50
2018-02-22T01:48:11.162Z,46.50
2018-02-22T01:50:38.617Z,46.60
2018-02-22T01:53:06.091Z,46.50
2018-02-22T01:55:33.553Z,46.60
2018-02-22T01:58:01.794Z,47.30
2018-02-22T02:00:29.267Z,46.60
2018-02-22T02:02:56.739Z,46.60
2018-02-22T02:05:24.202Z,46.70
2018-02-22T02:07:51.665Z,46.70
2018-02-22T02:10:19.125Z,46.70
2018-02-22T02:12:47.361Z,46.80
2018-02-22T02:15:14.826Z,46.80
2018-02-22T02:17:42.295Z,47.40
2018-02-22T02:20:09.750Z,46.80
2018-02-22T02:22:38.125Z,46.70
2018-02-22T02:25:05.689Z,46.80
2018-02-22T02:27:33.246Z,46.70
2018-02-22T02:30:00.709Z,46.80
2018-02-22T02:32:28.181Z,46.80
2018-02-22T02:34:56.441Z,46.80
2018-02-22T02:37:23.902Z,46.80
2018-02-22T02:39:52.124Z,46.80
2018-02-22T02:42:19.587Z,46.80
2018-02-22T02:44:47.045Z,46.80
2018-02-22T02:47:14.498Z,46.80
2018-02-22T02:49:41.982Z,46.80
2018-02-22T02:52:09.438Z,46.80
2018-02-22T02:54:36.923Z,46.80
2018-02-22T02:57:05.143Z,46.90
2018-02-22T02:59:32.614Z,46.80
2018-02-22T03:02:00.091Z,46.80
2018-02-22T03:04:27.567Z,46.80
2018-02-22T03:06:55.786Z,46.90
2018-02-22T03:09:23.264Z,46.90
2018-02-22T03:11:50.729Z,46.90
2018-02-22T03:14:18.201Z,46.90
2018-02-22T03:16:45.657Z,46.90
2018-02-22T03:19:13.885Z,47.60
2018-02-22T03:21:41.341Z,47.00
2018-02-22T03:24:08.800Z,47.00
2018-02-22T03:26:36.254Z,47.00
2018-02-22T03:29:03.730Z,47.00
2018-02-22T03:31:31.197Z,47.00
2018-02-22T03:33:58.665Z,47.00
2018-02-22T03:36:26.889Z,47.00
2018-02-22T03:38:54.357Z,47.00
2018-02-22T03:41:22.235Z,47.60
2018-02-22T03:43:49.727Z,47.00
2018-02-22T03:46:18.001Z,47.10
2018-02-22T03:48:46.218Z,47.10
2018-02-22T03:51:13.712Z,47.10
2018-02-22T03:53:41.169Z,47.10
2018-02-22T03:56:08.654Z,47.10
2018-02-22T03:58:36.869Z,47.10
2018-02-22T04:01:04.337Z,47.10
2018-02-22T04:03:31.792Z,47.10
2018-02-22T04:05:59.264Z,47.10
2018-02-22T04:08:26.725Z,47.00
2018-02-22T04:10:54.183Z,47.10
2018-02-22T04:13:21.738Z,47.10
2018-02-22T04:15:49.209Z,47.10
2018-02-22T04:18:17.456Z,47.10
2018-02-22T04:20:44.902Z,47.10
2018-02-22T04:23:12.357Z,47.10
2018-02-22T04:25:39.844Z,47.10
2018-02-22T04:28:07.300Z,47.10
2018-02-22T04:30:34.765Z,47.10
2018-02-22T04:33:02.253Z,47.10
2018-02-22T04:35:29.727Z,47.10
2018-02-22T04:37:57.210Z,47.10
2018-02-22T04:40:24.682Z,47.10
2018-02-22T04:42:52.134Z,47.10
2018-02-22T04:45:19.693Z,47.10
2018-02-22T04:47:47.177Z,47.20
2018-02-22T04:50:14.636Z,47.20
2018-02-22T04:52:42.164Z,47.20
2018-02-22T04:55:09.626Z,47.30
2018-02-22T04:57:37.085Z,47.20
2018-02-22T05:00:05.301Z,47.30
2018-02-22T05:02:32.767Z,47.30
2018-02-22T05:05:00.223Z,47.20
2018-02-22T05:07:27.674Z,47.30
2018-02-22T05:09:55.130Z,47.30
2018-02-22T05:12:22.614Z,47.30
2018-02-22T05:14:50.074Z,47.30
2018-02-22T05:17:17.547Z,47.30
2018-02-22T05:19:45.010Z,47.20
2018-02-22T05:22:12.514Z,46.80
2018-02-22T05:24:39.973Z,45.60
2018-02-22T05:27:07.461Z,44.80
2018-02-22T05:29:34.922Z,43.60
2018-02-22T05:32:02.391Z,43.10
2018-02-22T05:34:30.624Z,41.80
2018-02-22T05:36:58.130Z,42.10
2018-02-22T05:39:25.566Z,41.50
2018-02-22T05:41:53.156Z,40.90
2018-02-22T05:44:21.391Z,40.50
2018-02-22T05:46:48.867Z,40.50
2018-02-22T05:49:16.719Z,39.90
2018-02-22T05:51:44.194Z,40.50
2018-02-22T05:54:12.423Z,42.20
2018-02-22T05:56:39.906Z,42.10
2018-02-22T05:59:07.357Z,42.60
2018-02-22T06:01:34.854Z,44.00
2018-02-22T06:04:02.306Z,45.20
2018-02-22T06:06:30.549Z,44.20
2018-02-22T06:08:58.024Z,44.20
2018-02-22T06:11:26.240Z,44.10
2018-02-22T06:13:53.710Z,44.10
2018-02-22T06:16:21.173Z,44.20
2018-02-22T06:18:48.632Z,44.40
2018-02-22T06:21:16.100Z,46.40
2018-02-22T06:23:43.590Z,44.20
2018-02-22T06:26:12.212Z,43.90
2018-02-22T06:28:39.686Z,43.90
2018-02-22T06:31:07.130Z,44.20
2018-02-22T06:33:34.604Z,44.30
2018-02-22T06:36:02.062Z,44.60
2018-02-22T06:38:29.521Z,44.60
2018-02-22T06:40:56.994Z,44.20
2018-02-22T06:43:25.237Z,43.40
2018-02-22T06:45:52.692Z,43.40
2018-02-22T06:48:20.158Z,43.30
2018-02-22T06:50:47.614Z,43.50
2018-02-22T06:53:15.086Z,43.90
2018-02-22T06:55:42.545Z,44.00
2018-02-22T06:58:10.001Z,44.60
2018-02-22T07:00:37.478Z,44.30
2018-02-22T07:03:05.704Z,44.50
2018-02-22T07:05:33.160Z,44.50
2018-02-22T07:08:00.615Z,44.80
2018-02-22T07:10:28.077Z,44.80
2018-02-22T07:12:55.534Z,44.90
2018-02-22T07:15:23.005Z,45.00
2018-02-22T07:17:50.459Z,45.00
2018-02-22T07:20:17.916Z,45.20
2018-02-22T07:22:45.377Z,45.20
2018-02-22T07:25:12.841Z,45.30
2018-02-22T07:27:41.128Z,44.90
2018-02-22T07:30:09.354Z,45.50
2018-02-22T07:32:36.815Z,45.50
2018-02-22T07:35:04.293Z,45.60
2018-02-22T07:37:31.730Z,45.60
2018-02-22T07:39:59.196Z,45.60
2018-02-22T07:42:26.648Z,45.70
2018-02-22T07:44:54.102Z,45.80
2018-02-22T07:47:21.566Z,45.90
2018-02-22T07:49:49.117Z,46.00
2018-02-22T07:52:16.570Z,46.00
2018-02-22T07:54:44.033Z,46.10
2018-02-22T07:57:11.490Z,46.10
2018-02-22T07:59:38.969Z,46.20
2018-02-22T08:02:07.191Z,46.40
2018-02-22T08:04:34.649Z,46.30
2018-02-22T08:07:02.112Z,46.40
2018-02-22T08:09:29.569Z,46.40
2018-02-22T08:11:57.124Z,46.40
2018-02-22T08:14:24.584Z,46.50
2018-02-22T08:16:52.057Z,46.60
2018-02-22T08:19:19.519Z,46.60
2018-02-22T08:21:46.978Z,46.60
2018-02-22T08:24:14.435Z,46.70
2018-02-22T08:26:41.906Z,46.60
2018-02-22T08:29:10.134Z,46.70
2018-02-22T08:31:37.597Z,46.70
2018-02-22T08:34:05.049Z,46.70
2018-02-22T08:36:32.514Z,46.70
2018-02-22T08:38:59.970Z,46.90
2018-02-22T08:41:27.428Z,46.90
2018-02-22T08:43:54.878Z,46.80
2018-02-22T08:46:22.346Z,46.80
2018-02-22T08:48:49.805Z,46.80
2018-02-22T08:51:17.283Z,46.80
2018-02-22T08:53:44.721Z,46.90
2018-02-22T08:56:12.186Z,47.40
2018-02-22T08:58:39.640Z,46.90
2018-02-22T09:01:07.119Z,47.00
2018-02-22T09:03:35.347Z,47.00
2018-02-22T09:06:02.793Z,47.00
2018-02-22T09:08:30.264Z,47.00
2018-02-22T09:10:57.714Z,47.00
2018-02-22T09:13:25.176Z,47.00
2018-02-22T09:15:52.629Z,47.00
2018-02-22T09:18:20.095Z,47.00
2018-02-22T09:20:47.561Z,47.00
2018-02-22T09:23:15.037Z,47.00
2018-02-22T09:25:43.270Z,47.00
2018-02-22T09:28:10.729Z,47.00
2018-02-22T09:30:38.185Z,47.00
2018-02-22T09:33:05.645Z,47.00
2018-02-22T09:35:33.102Z,47.00
2018-02-22T09:38:00.585Z,47.10
2018-02-22T09:40:28.853Z,47.80
2018-02-22T09:42:56.273Z,47.10
2018-02-22T09:45:23.735Z,47.10
2018-02-22T09:47:51.469Z,47.10
2018-02-22T09:50:18.962Z,47.20
2018-02-22T09:52:46.428Z,47.20
2018-02-22T09:55:13.900Z,47.20
2018-02-22T09:57:42.146Z,47.30
2018-02-22T10:00:09.609Z,47.20
2018-02-22T10:02:37.066Z,47.30
2018-02-22T10:05:04.527Z,47.30
2018-02-22T10:07:31.982Z,47.20
2018-02-22T10:09:59.541Z,47.30
2018-02-22T10:12:27.002Z,47.20
2018-02-22T10:14:54.457Z,47.20
2018-02-22T10:17:21.912Z,47.20
2018-02-22T10:19:49.365Z,47.20
2018-02-22T10:22:17.901Z,47.20
2018-02-22T10:24:45.365Z,47.20
2018-02-22T10:27:12.813Z,47.20
2018-02-22T10:29:40.274Z,47.20
2018-02-22T10:32:07.725Z,47.20
2018-02-22T10:34:35.182Z,47.10
2018-02-22T10:37:02.653Z,47.30
2018-02-22T10:39:30.106Z,47.10
2018-02-22T10:41:57.650Z,47.10
2018-02-22T10:44:25.104Z,47.10
2018-02-22T10:46:52.553Z,47.20
2018-02-22T10:49:20.026Z,47.10
2018-02-22T10:51:47.478Z,47.10
2018-02-22T10:54:14.937Z,47.20
2018-02-22T10:56:42.397Z,47.20
2018-02-22T10:59:09.842Z,47.20
2018-02-22T11:01:42.938Z,47.20
2018-02-22T11:04:10.396Z,47.20
2018-02-22T11:06:38.149Z,47.20
2018-02-22T11:09:05.604Z,47.20
2018-02-22T11:11:33.070Z,47.20
2018-02-22T11:14:00.524Z,47.20
2018-02-22T11:16:27.985Z,47.20
2018-02-22T11:18:55.443Z,47.20
2018-02-22T11:21:23.028Z,47.20
2018-02-22T11:23:51.250Z,47.20
2018-02-22T11:26:18.738Z,47.10
2018-02-22T11:28:46.202Z,47.20
2018-02-22T11:31:13.663Z,47.20
2018-02-22T11:33:41.133Z,47.10
2018-02-22T11:36:08.585Z,47.10
2018-02-22T11:38:36.050Z,47.10
2018-02-22T11:41:03.598Z,47.10
2018-02-22T11:43:31.056Z,47.10
2018-02-22T11:46:00.023Z,47.10
2018-02-22T11:48:27.488Z,47.10
2018-02-22T11:50:54.937Z,47.10
2018-02-22T11:53:22.402Z,47.10
2018-02-22T11:55:49.860Z,47.00
2018-02-22T11:58:17.355Z,47.00
2018-02-22T12:00:44.780Z,47.00
2018-02-22T12:03:12.753Z,47.10
2018-02-22T12:05:40.205Z,47.10
2018-02-22T12:08:07.677Z,47.10
2018-02-22T12:10:35.124Z,47.10
2018-02-22T12:13:02.593Z,47.00
2018-02-22T12:15:30.870Z,47.10
2018-02-22T12:17:59.124Z,47.00
2018-02-22T12:20:26.680Z,47.00
2018-02-22T12:22:54.156Z,47.00
2018-02-22T12:25:21.602Z,47.00
2018-02-22T12:27:49.066Z,47.10
2018-02-22T12:30:16.616Z,47.00
2018-02-22T12:32:44.167Z,47.50
2018-02-22T12:35:11.638Z,47.20
2018-02-22T12:37:39.085Z,47.00
2018-02-22T12:40:06.548Z,47.10
2018-02-22T12:42:34.010Z,47.20
2018-02-22T12:45:01.464Z,47.60
2018-02-22T12:47:28.928Z,46.70
2018-02-22T12:49:57.154Z,47.20
2018-02-22T12:52:24.606Z,47.10
2018-02-22T12:54:52.073Z,47.40
2018-02-22T12:57:19.526Z,48.10
2018-02-22T12:59:47.002Z,47.70
2018-02-22T13:02:14.464Z,47.50
2018-02-22T13:04:41.916Z,47.50
2018-02-22T13:07:09.384Z,47.40
2018-02-22T13:09:36.837Z,47.40
2018-02-22T13:12:04.290Z,48.00
2018-02-22T13:14:31.748Z,47.40
2018-02-22T13:16:59.211Z,47.40
2018-02-22T13:19:27.433Z,47.50
2018-02-22T13:21:54.881Z,48.00
2018-02-22T13:24:22.355Z,47.50
2018-02-22T13:26:49.840Z,47.50
2018-02-22T13:29:17.311Z,47.60
2018-02-22T13:31:44.769Z,47.60
2018-02-22T13:34:24.965Z,48.10
2018-02-22T13:36:52.420Z,47.60
2018-02-22T13:39:19.901Z,47.60
2018-02-22T13:41:47.362Z,47.60
2018-02-22T13:44:26.590Z,47.60
2018-02-22T13:46:54.061Z,47.50
2018-02-22T13:49:33.302Z,47.50
2018-02-22T13:52:00.774Z,47.50
2018-02-22T13:54:29.010Z,47.50
2018-02-22T13:59:58.094Z,47.40
2018-02-22T14:02:26.375Z,47.50
2018-02-22T14:04:53.860Z,47.50
2018-02-22T14:07:21.309Z,47.50
2018-02-22T14:09:48.760Z,47.50
2018-02-22T14:12:16.221Z,47.50
2018-02-22T14:14:43.683Z,47.50
2018-02-22T14:17:11.181Z,47.40
2018-02-22T14:19:38.600Z,48.10
2018-02-22T14:22:06.063Z,47.40
2018-02-22T14:24:33.509Z,47.40
2018-02-22T14:27:00.968Z,47.40
2018-02-22T14:29:28.422Z,47.40
2018-02-22T14:31:55.880Z,47.40
2018-02-22T14:34:23.428Z,47.40
2018-02-22T14:36:50.891Z,47.40
2018-02-22T14:39:18.446Z,47.30
2018-02-22T14:41:45.926Z,47.30
2018-02-22T14:44:13.497Z,47.30
2018-02-22T14:46:41.711Z,47.40
2018-02-22T14:49:09.177Z,47.30
2018-02-22T14:51:36.637Z,47.30
2018-02-22T14:54:04.109Z,47.30
2018-02-22T14:56:31.569Z,47.40
2018-02-22T14:58:59.038Z,47.30
2018-02-22T15:01:26.545Z,47.40
2018-02-22T15:03:54.726Z,47.30
2018-02-22T15:06:22.168Z,47.40
2018-02-22T15:08:49.678Z,47.40
2018-02-22T15:11:17.127Z,47.50
2018-02-22T15:13:45.359Z,47.50
2018-02-22T15:16:13.653Z,47.50
2018-02-22T15:18:41.129Z,47.50
2018-02-22T15:21:08.568Z,47.50
2018-02-22T15:23:36.029Z,47.50
2018-02-22T15:26:03.508Z,47.50
2018-02-22T15:28:30.976Z,47.50
2018-02-22T15:30:59.234Z,47.60
2018-02-22T15:33:26.795Z,47.50
2018-02-22T15:35:54.245Z,47.60
2018-02-22T15:38:21.693Z,47.60
2018-02-22T15:40:49.141Z,47.60
2018-02-22T15:43:16.597Z,47.60
2018-02-22T15:45:44.054Z,47.60
2018-02-22T15:48:11.513Z,47.70
2018-02-22T15:50:38.968Z,47.70
2018-02-22T15:53:06.435Z,47.80
2018-02-22T15:55:33.873Z,47.70
2018-02-22T15:58:01.329Z,47.70
2018-02-22T16:00:28.789Z,47.70
2018-02-22T16:02:56.241Z,47.70
2018-02-22T16:05:23.705Z,47.80
2018-02-22T16:07:51.156Z,47.80
2018-02-22T16:10:18.623Z,47.80
2018-02-22T16:12:46.177Z,47.90
2018-02-22T16:15:13.641Z,47.90
2018-02-22T16:17:41.096Z,47.90
2018-02-22T16:20:08.654Z,48.20
2018-02-22T16:22:36.117Z,48.10
2018-02-22T16:25:03.576Z,48.10
2018-02-22T16:27:31.030Z,48.10
2018-02-22T16:29:58.497Z,48.00
2018-02-22T16:32:26.712Z,48.00
2018-02-22T16:34:54.177Z,48.00
2018-02-22T16:37:21.621Z,48.00
2018-02-22T16:39:49.085Z,48.20
2018-02-22T16:42:16.548Z,48.70
2018-02-22T16:44:43.992Z,48.60
2018-02-22T16:47:11.453Z,48.20
2018-02-22T16:49:38.904Z,48.10
2018-02-22T16:52:06.362Z,48.10
2018-02-22T16:54:33.853Z,48.10
2018-02-22T16:57:01.305Z,49.00
2018-02-22T16:59:28.765Z,48.50
2018-02-22T17:01:56.337Z,48.10
2018-02-22T17:04:23.849Z,48.10
2018-02-22T17:06:51.305Z,48.00
2018-02-22T17:09:18.765Z,48.00
2018-02-22T17:11:46.238Z,47.90
2018-02-22T17:14:13.755Z,47.90
2018-02-22T17:16:41.234Z,47.90
2018-02-22T17:19:08.702Z,48.20
2018-02-22T17:21:36.177Z,48.40
2018-02-22T17:24:03.619Z,48.10
2018-02-22T17:26:36.858Z,47.90
2018-02-22T17:29:10.829Z,47.80
2018-02-22T17:31:44.098Z,47.70
2018-02-22T17:34:11.597Z,47.70
2018-02-22T17:39:50.916Z,48.30
2018-02-22T17:42:18.366Z,47.90
2018-02-22T17:44:45.833Z,47.80
2018-02-22T17:47:13.288Z,48.20
2018-02-22T17:49:40.790Z,48.40
2018-02-22T17:52:09.005Z,48.20
2018-02-22T17:54:37.419Z,48.20
2018-02-22T17:57:04.878Z,47.70
2018-02-22T17:59:32.329Z,47.50
2018-02-22T18:01:59.800Z,47.40
2018-02-22T18:04:27.253Z,47.80
2018-02-22T18:06:54.723Z,48.30
2018-02-22T18:09:22.938Z,48.30
2018-02-22T18:11:50.406Z,48.30
2018-02-22T18:14:17.862Z,47.90
2018-02-22T18:16:45.336Z,47.80
2018-02-22T18:19:12.785Z,47.80
2018-02-22T18:21:40.253Z,47.80
2018-02-22T18:24:07.719Z,47.90
2018-02-22T18:26:35.254Z,47.80
2018-02-22T18:29:02.709Z,48.50
2018-02-22T18:31:30.220Z,47.70
2018-02-22T18:33:57.668Z,47.80
2018-02-22T18:36:25.148Z,48.00
2018-02-22T18:38:58.274Z,48.60
2018-02-22T18:41:25.731Z,48.80
2018-02-22T18:43:59.689Z,48.20
2018-02-22T18:46:27.137Z,48.20
2018-02-22T18:48:54.600Z,48.20
2018-02-22T18:51:22.058Z,48.10
2018-02-22T18:53:49.556Z,48.00
2018-02-22T18:56:17.120Z,48.00
2018-02-22T18:58:44.579Z,48.00
2018-02-22T19:01:12.026Z,48.00
2018-02-22T19:03:39.589Z,48.00
2018-02-22T19:06:07.067Z,47.90
2018-02-22T19:08:34.514Z,47.80
2018-02-22T19:11:01.970Z,47.80
2018-02-22T19:13:29.430Z,47.80
2018-02-22T19:15:56.882Z,47.80
2018-02-22T19:18:24.337Z,47.80
2018-02-22T19:20:51.788Z,47.70
2018-02-22T19:23:19.608Z,47.70
2018-02-22T19:25:47.061Z,47.70
2018-02-22T19:28:14.518Z,47.70
2018-02-22T19:30:41.970Z,47.70
2018-02-22T19:33:09.419Z,47.70
2018-02-22T19:35:36.871Z,47.70
2018-02-22T19:38:05.196Z,47.70
2018-02-22T19:40:32.675Z,47.70
2018-02-22T19:43:00.128Z,47.70
2018-02-22T19:45:28.364Z,47.60
2018-02-22T19:47:55.842Z,47.60
2018-02-22T19:50:23.288Z,47.50
2018-02-22T19:52:50.744Z,47.50
2018-02-22T19:55:18.197Z,47.50
2018-02-22T19:57:45.648Z,47.60
2018-02-22T20:00:13.105Z,47.60
2018-02-22T20:02:40.561Z,48.20
2018-02-22T20:05:08.026Z,47.60
2018-02-22T20:07:35.481Z,47.60
2018-02-22T20:10:02.982Z,47.60
2018-02-22T20:12:31.215Z,47.50
2018-02-22T20:14:58.677Z,47.50
2018-02-22T20:17:26.125Z,47.50
2018-02-22T20:19:53.587Z,47.50
2018-02-22T20:22:21.041Z,47.50
2018-02-22T20:24:48.501Z,47.50
2018-02-22T20:27:15.954Z,47.50
2018-02-22T20:29:43.909Z,47.50
2018-02-22T20:32:11.356Z,47.60
2018-02-22T20:34:38.816Z,47.60
2018-02-22T20:37:06.265Z,47.50
2018-02-22T20:39:33.749Z,47.60
2018-02-22T20:42:01.197Z,47.50
2018-02-22T20:44:31.405Z,47.50
2018-02-22T20:46:58.856Z,47.60
2018-02-22T20:49:26.328Z,45.10
2018-02-22T20:51:53.786Z,31.60
2018-02-22T20:54:21.795Z,36.20
2018-02-22T20:56:50.016Z,38.20
2018-02-22T20:59:17.474Z,38.20
2018-02-22T21:01:44.941Z,38.60
2018-02-22T21:04:12.390Z,38.50
2018-02-22T21:06:39.841Z,39.20
2018-02-22T21:09:07.316Z,39.50
2018-02-22T21:11:35.181Z,40.10
2018-02-22T21:14:02.637Z,40.30
2018-02-22T21:16:30.212Z,40.80
2018-02-22T21:18:57.659Z,41.00
2018-02-22T21:21:25.119Z,41.20
2018-02-22T21:23:52.666Z,41.30
2018-02-22T21:26:20.121Z,41.70
2018-02-22T21:28:47.570Z,41.80
2018-02-22T21:31:15.032Z,41.90
2018-02-22T21:33:42.498Z,42.10
2018-02-22T21:36:10.044Z,42.30
2018-02-22T21:38:37.496Z,42.40
2018-02-22T21:41:04.966Z,42.60
2018-02-22T21:43:32.522Z,42.70
2018-02-22T21:45:59.981Z,42.80
2018-02-22T21:48:27.428Z,43.00
2018-02-22T21:50:54.885Z,43.10
2018-02-22T21:53:22.341Z,43.30
2018-02-22T21:55:49.808Z,43.40
2018-02-22T21:58:17.252Z,43.40
2018-02-22T22:00:44.712Z,43.50
2018-02-22T22:03:12.173Z,43.60
2018-02-22T22:05:39.725Z,43.70
2018-02-22T22:08:07.319Z,43.90
2018-02-22T22:10:35.539Z,44.10
2018-02-22T22:13:03.084Z,44.00
2018-02-22T22:15:30.526Z,44.10
2018-02-22T22:17:58.014Z,44.20
2018-02-22T22:20:25.446Z,44.40
2018-02-22T22:22:52.947Z,44.40
2018-02-22T22:25:20.393Z,44.50
2018-02-22T22:27:47.863Z,44.60
2018-02-22T22:30:15.417Z,44.70
2018-02-22T22:32:42.881Z,44.80
2018-02-22T22:35:10.340Z,44.80
2018-02-22T22:37:37.883Z,44.80
2018-02-22T22:40:05.329Z,44.90
2018-02-22T22:42:32.896Z,45.00
2018-02-22T22:45:00.971Z,45.10
2018-02-22T22:47:28.408Z,45.10
2018-02-22T22:49:55.857Z,45.20
2018-02-22T22:52:23.314Z,45.20
2018-02-22T22:54:50.780Z,45.30
2018-02-22T22:57:18.224Z,45.30
2018-02-22T22:59:45.694Z,45.30
2018-02-22T23:02:13.157Z,45.40
2018-02-22T23:04:40.619Z,45.30
2018-02-22T23:07:08.062Z,45.40
2018-02-22T23:09:35.536Z,45.50
2018-02-22T23:12:02.990Z,45.50
2018-02-22T23:14:30.545Z,45.50
2018-02-22T23:16:58.002Z,45.60
2018-02-22T23:19:25.461Z,45.70
2018-02-22T23:21:53.017Z,45.80
2018-02-22T23:24:20.475Z,45.80
2018-02-22T23:26:47.917Z,45.80
2018-02-22T23:29:15.377Z,45.90
2018-02-22T23:31:42.821Z,45.80
2018-02-22T23:34:10.281Z,45.80
2018-02-22T23:36:37.737Z,45.80
2018-02-22T23:39:05.198Z,45.80
2018-02-22T23:41:32.650Z,45.90
2018-02-22T23:44:00.109Z,46.00
2018-02-22T23:46:27.557Z,46.00
2018-02-22T23:48:55.027Z,46.10
2018-02-22T23:51:22.481Z,46.20
2018-02-22T23:53:49.942Z,46.20
2018-02-22T23:56:17.392Z,46.20
2018-02-22T23:58:44.840Z,46.30
